VIJP/JAI METAR and TAF weather

Enter ICAO airport designator
Station Type Date Time Source
VIJP METAR 2020/09/22 01:00 UTC NOAA

VIJP 220100Z 05003KT 3000 HZ SCT030 SCT100 29/23 Q1002 NOSIG


Station Type Date Time Source
VIJP Decoded METAR 2020/09/22 01:00 UTC NOAA

Jaipur / Sanganer, India (VIJP) 26-49N 075-48E 390M
Sep 21, 2020 - 09:00 PM EDT / 2020.09.22 0100 UTC
Wind: from the NE (050 degrees) at 3 MPH (3 KT):0
Visibility: 1 mile(s):0
Sky conditions: partly cloudy
Weather: haze
Temperature: 84 F (29 C)
Dew Point: 73 F (23 C)
Relative Humidity: 70%
Pressure (altimeter): 29.59 in. Hg (1002 hPa)
ob: VIJP 220100Z 05003KT 3000 HZ SCT030 SCT100 29/23 Q1002 NOSIG
cycle: 1

Station Type Date Time Source
VIJP TAF 2020/09/21 18:00 UTC NOAA

TAF VIJP 211700Z 2118/2224 VRB03KT 3000 HZ SCT030 SCT100
BECMG 2203/2205 07005KT 5000 HZ SCT030 SCT100
TEMPO 2208/2215 09010KT 1500 TSRA FEW35CB BKN100
BECMG 2212/2214 VRB03KT 3000 HZ

Example: see airport list